< Typhoon 196022 1960 Season Typhoon 196024 >
Typhoon 196023 (LOLA)
General InformationTrack Information on Google Maps || Disaster Info.ResourceGoogle EarthGE AnimationAtom FeedGeoJSON
Detalied Best Track (Time Zone = UTC)
Year Month Day Hour Lat. Long. Pressure (hPa) Wind (kt) Class Image Chart
1960 10 8 00 20.8 131.6 1000 0 2 -- Chart
1960 10 8 06 21.4 131.4 1000 0 2 -- Chart
1960 10 8 12 22.0 131.0 1000 0 2 -- Chart
1960 10 8 18 22.4 130.2 1000 0 2 -- Chart
1960 10 9 00 22.7 129.4 1000 0 2 -- Chart
1960 10 9 06 22.3 128.9 1000 0 2 -- Chart
1960 10 9 12 21.9 128.8 1002 0 2 -- Chart
1960 10 9 18 21.5 128.9 1000 0 2 -- Chart
1960 10 10 00 21.2 128.8 1000 0 2 -- Chart
1960 10 10 06 20.9 128.3 998 0 9 -- Chart
1960 10 10 12 20.0 127.9 998 0 9 -- Chart
1960 10 10 18 18.7 128.0 995 0 9 -- Chart
1960 10 11 00 17.0 128.0 990 0 9 -- Chart
1960 10 11 06 16.5 126.7 985 0 9 -- Chart
1960 10 11 12 16.5 126.1 985 0 9 -- Chart
1960 10 11 18 16.1 125.7 980 0 9 -- Chart
1960 10 12 00 15.6 125.3 975 0 9 -- Chart
1960 10 12 06 15.2 125.0 970 0 9 -- Chart
1960 10 12 12 15.3 124.4 975 0 9 -- Chart
1960 10 12 18 15.6 123.8 980 0 9 -- Chart
1960 10 13 00 15.7 123.3 985 0 9 -- Chart
1960 10 13 06 15.8 122.7 990 0 9 -- Chart
1960 10 13 12 15.9 122.1 990 0 9 -- Chart
1960 10 13 18 16.2 121.0 990 0 9 -- Chart
1960 10 14 00 16.3 119.5 990 0 9 -- Chart
1960 10 14 06 16.2 118.2 990 0 9 -- Chart
1960 10 14 12 16.2 116.9 995 0 9 -- Chart
1960 10 14 18 16.2 115.7 995 0 9 -- Chart
1960 10 15 00 16.2 114.3 995 0 9 -- Chart
1960 10 15 06 16.6 113.2 995 0 9 -- Chart
1960 10 15 12 17.0 112.1 995 0 9 -- Chart
1960 10 15 18 17.2 111.0 995 0 9 -- Chart
1960 10 16 00 17.2 110.2 996 0 9 -- Chart
1960 10 16 06 17.2 109.4 996 0 9 -- Chart
1960 10 16 12 17.2 108.4 1000 0 9 -- Chart
1960 10 16 18 17.1 107.4 1006 0 2 -- Chart
1960 10 17 00 17.0 107.0 1008 0 2 -- Chart
Japan Meteorological Agency Best Track Data | Correction Date : 1989-06-01
< Typhoon 196022 1960 Season Typhoon 196024 >

Help